createdAt,value
2019-02-02T00:01:01.296Z,14.80
2019-02-02T00:03:34.952Z,17.48
2019-02-02T00:06:08.498Z,16.50
2019-02-02T00:08:43.121Z,13.90
2019-02-02T00:11:17.594Z,15.18
2019-02-02T00:13:51.291Z,14.15
2019-02-02T00:16:24.975Z,15.38
2019-02-02T00:18:58.535Z,15.43
2019-02-02T00:21:32.876Z,15.52
2019-02-02T00:24:06.455Z,16.75
2019-02-02T00:26:40.023Z,14.87
2019-02-02T00:29:14.547Z,16.15
2019-02-02T00:31:48.182Z,14.30
2019-02-02T00:34:21.730Z,14.80
2019-02-02T00:36:55.304Z,14.38
2019-02-02T00:39:29.748Z,14.85
2019-02-02T00:42:04.227Z,15.23
2019-02-02T00:44:37.992Z,15.65
2019-02-02T00:47:11.535Z,15.75
2019-02-02T00:49:45.234Z,14.02
2019-02-02T00:52:18.839Z,13.75
2019-02-02T00:54:52.451Z,15.70
2019-02-02T00:57:26.224Z,15.05
2019-02-02T00:59:59.852Z,13.70
2019-02-02T01:02:33.460Z,13.93
2019-02-02T01:05:08.620Z,13.73
2019-02-02T01:07:42.351Z,13.00
2019-02-02T01:10:21.970Z,13.23
2019-02-02T01:12:55.481Z,14.55
2019-02-02T01:15:29.127Z,14.38
2019-02-02T01:18:02.711Z,16.50
2019-02-02T01:20:36.259Z,13.80
2019-02-02T01:23:09.955Z,13.30
2019-02-02T01:25:43.657Z,14.45
2019-02-02T01:28:17.224Z,12.93
2019-02-02T01:30:50.836Z,12.20
2019-02-02T01:33:24.442Z,13.27
2019-02-02T01:35:58.931Z,12.68
2019-02-02T01:38:32.462Z,14.18
2019-02-02T01:41:06.063Z,12.05
2019-02-02T01:43:39.821Z,11.40
2019-02-02T01:46:13.411Z,11.90
2019-02-02T01:48:47.148Z,12.57
2019-02-02T01:51:20.759Z,13.98
2019-02-02T01:53:54.354Z,12.65
2019-02-02T01:56:28.158Z,12.82
2019-02-02T01:59:01.744Z,12.82
2019-02-02T02:01:36.064Z,12.48
2019-02-02T02:04:09.825Z,11.57
2019-02-02T02:06:43.325Z,12.57
2019-02-02T02:09:16.877Z,13.30
2019-02-02T02:11:51.395Z,12.85
2019-02-02T02:14:25.092Z,13.52
2019-02-02T02:16:59.519Z,12.90
2019-02-02T02:19:33.234Z,12.68
2019-02-02T02:22:07.577Z,12.85
2019-02-02T02:24:41.206Z,12.25
2019-02-02T02:27:14.727Z,11.70
2019-02-02T02:29:48.435Z,12.60
2019-02-02T02:32:21.982Z,13.45
2019-02-02T02:34:56.536Z,14.35
2019-02-02T02:37:30.163Z,11.98
2019-02-02T02:40:03.840Z,14.95
2019-02-02T02:42:37.554Z,15.13
2019-02-02T02:45:11.171Z,13.88
2019-02-02T02:47:44.947Z,12.77
2019-02-02T02:50:18.570Z,13.43
2019-02-02T02:52:52.219Z,11.40
2019-02-02T02:55:25.986Z,12.48
2019-02-02T02:57:59.527Z,13.50
2019-02-02T03:00:33.088Z,13.07
2019-02-02T03:03:07.398Z,12.00
2019-02-02T03:05:41.052Z,12.52
2019-02-02T03:08:14.699Z,12.30
2019-02-02T03:10:48.257Z,13.70
2019-02-02T03:13:21.818Z,11.65
2019-02-02T03:15:55.350Z,11.23
2019-02-02T03:18:29.004Z,12.05
2019-02-02T03:21:02.542Z,10.90
2019-02-02T03:23:36.329Z,11.95
2019-02-02T03:26:10.072Z,11.77
2019-02-02T03:28:53.075Z,11.80
2019-02-02T03:31:17.440Z,12.40
2019-02-02T03:33:51.207Z,10.80
2019-02-02T03:36:24.738Z,10.38
2019-02-02T03:38:58.258Z,10.50
2019-02-02T03:41:31.978Z,10.65
2019-02-02T03:44:05.616Z,12.15
2019-02-02T03:46:39.340Z,10.35
2019-02-02T03:49:13.927Z,10.30
2019-02-02T03:51:47.548Z,10.45
2019-02-02T03:54:21.226Z,10.43
2019-02-02T03:56:55.666Z,11.18
2019-02-02T03:59:29.251Z,11.07
2019-02-02T04:02:02.848Z,10.43
2019-02-02T04:04:37.406Z,10.45
2019-02-02T04:07:11.208Z,13.30
2019-02-02T04:09:44.888Z,10.70
2019-02-02T04:12:18.490Z,10.13
2019-02-02T04:14:52.118Z,13.50
2019-02-02T04:17:25.729Z,11.23
2019-02-02T04:19:59.427Z,9.98
2019-02-02T04:22:35.779Z,10.25
2019-02-02T04:25:07.516Z,11.60
2019-02-02T04:27:41.259Z,10.15
2019-02-02T04:30:14.859Z,10.93
2019-02-02T04:32:48.480Z,11.77
2019-02-02T04:35:22.167Z,11.50
2019-02-02T04:37:55.829Z,12.35
2019-02-02T04:40:29.435Z,11.35
2019-02-02T04:43:03.094Z,10.90
2019-02-02T04:45:36.657Z,10.82
2019-02-02T04:48:10.215Z,11.38
2019-02-02T04:50:44.603Z,11.45
2019-02-02T04:53:18.280Z,10.23
2019-02-02T04:55:51.909Z,10.95
2019-02-02T04:58:26.027Z,11.10
2019-02-02T05:00:59.700Z,11.10
2019-02-02T05:03:33.459Z,9.05
2019-02-02T05:06:07.012Z,10.60
2019-02-02T05:08:40.609Z,9.13
2019-02-02T05:11:14.289Z,10.70
2019-02-02T05:13:47.827Z,10.70
2019-02-02T05:16:22.082Z,9.10
2019-02-02T05:18:55.796Z,10.77
2019-02-02T05:21:30.363Z,11.05
2019-02-02T05:24:03.976Z,11.00
2019-02-02T05:26:37.757Z,11.25
2019-02-02T05:29:12.189Z,11.27
2019-02-02T05:31:45.872Z,10.32
2019-02-02T05:34:19.404Z,10.05
2019-02-02T05:36:56.555Z,10.95
2019-02-02T05:39:30.229Z,11.65
2019-02-02T05:42:03.795Z,10.68
2019-02-02T05:44:37.431Z,10.70
2019-02-02T05:47:11.885Z,11.95
2019-02-02T05:49:45.484Z,10.45
2019-02-02T05:52:19.011Z,10.10
2019-02-02T05:54:52.594Z,10.98
2019-02-02T05:57:26.288Z,11.60
2019-02-02T05:59:59.903Z,9.93
2019-02-02T06:02:33.646Z,10.80
2019-02-02T06:05:07.243Z,10.00
2019-02-02T06:07:41.020Z,9.20
2019-02-02T06:10:16.364Z,10.15
2019-02-02T06:12:50.043Z,10.98
2019-02-02T06:15:23.567Z,10.70
2019-02-02T06:17:57.252Z,9.93
2019-02-02T06:20:30.825Z,11.80
2019-02-02T06:23:04.450Z,13.68
2019-02-02T06:25:38.025Z,11.35
2019-02-02T06:28:12.391Z,11.35
2019-02-02T06:30:46.097Z,10.80
2019-02-02T06:33:20.588Z,9.57
2019-02-02T06:35:54.345Z,12.60
2019-02-02T06:38:27.877Z,11.60
2019-02-02T06:41:01.431Z,10.88
2019-02-02T06:43:35.087Z,12.00
2019-02-02T06:46:09.433Z,10.95
2019-02-02T06:48:43.161Z,10.50
2019-02-02T06:51:16.927Z,11.40
2019-02-02T06:53:50.478Z,11.38
2019-02-02T06:56:24.082Z,12.43
2019-02-02T06:58:58.440Z,11.50
2019-02-02T07:01:32.942Z,12.82
2019-02-02T07:04:06.637Z,10.38
2019-02-02T07:06:40.196Z,10.95
2019-02-02T07:09:13.923Z,10.77
2019-02-02T07:11:47.470Z,12.32
2019-02-02T07:14:21.206Z,11.18
2019-02-02T07:16:55.528Z,10.43
2019-02-02T07:19:29.361Z,11.65
2019-02-02T07:22:03.712Z,12.32
2019-02-02T07:24:38.292Z,12.50
2019-02-02T07:27:11.933Z,10.43
2019-02-02T07:29:45.565Z,12.07
2019-02-02T07:32:19.167Z,10.80
2019-02-02T07:34:52.999Z,11.73
2019-02-02T07:37:26.667Z,10.85
2019-02-02T07:40:00.273Z,10.85
2019-02-02T07:42:34.018Z,11.40
2019-02-02T07:45:22.388Z,11.63
2019-02-02T07:47:55.934Z,11.75
2019-02-02T07:50:30.368Z,12.73
2019-02-02T07:53:04.190Z,12.60
2019-02-02T07:55:37.721Z,12.63
2019-02-02T07:58:11.494Z,10.98
2019-02-02T08:00:45.271Z,10.77
2019-02-02T08:03:19.787Z,12.82
2019-02-02T08:05:54.106Z,11.23
2019-02-02T08:08:27.849Z,12.80
2019-02-02T08:11:01.667Z,12.50
2019-02-02T08:13:36.039Z,12.32
2019-02-02T08:16:10.546Z,11.35
2019-02-02T08:18:44.307Z,9.93
2019-02-02T08:21:18.082Z,12.45
2019-02-02T08:23:52.487Z,10.77
2019-02-02T08:26:26.175Z,13.43
2019-02-02T08:29:00.530Z,13.93
2019-02-02T08:31:35.529Z,13.55
2019-02-02T08:34:09.288Z,17.02
2019-02-02T08:36:43.751Z,15.68
2019-02-02T08:39:28.715Z,13.85
2019-02-02T08:41:51.423Z,12.60
2019-02-02T08:44:25.226Z,13.57
2019-02-02T08:46:59.017Z,13.60
2019-02-02T08:49:32.610Z,13.35
2019-02-02T08:52:06.430Z,14.18
2019-02-02T08:54:40.155Z,13.32
2019-02-02T08:57:14.567Z,13.45
2019-02-02T08:59:48.936Z,13.25
2019-02-02T09:02:22.568Z,11.38
2019-02-02T09:04:56.170Z,14.30
2019-02-02T09:07:29.691Z,13.60
2019-02-02T09:10:04.389Z,15.45
2019-02-02T09:12:38.226Z,16.15
2019-02-02T09:15:12.083Z,16.23
2019-02-02T09:17:45.933Z,21.12
2019-02-02T09:20:19.475Z,13.02
2019-02-02T09:23:03.931Z,12.98
2019-02-02T09:25:27.023Z,13.45
2019-02-02T09:28:01.524Z,13.80
2019-02-02T09:30:35.146Z,14.65
2019-02-02T09:33:08.867Z,14.38
2019-02-02T09:35:42.487Z,15.13
2019-02-02T09:38:16.248Z,13.32
2019-02-02T09:40:50.783Z,12.07
2019-02-02T09:43:24.352Z,13.10
2019-02-02T09:45:58.178Z,11.25
2019-02-02T09:48:31.904Z,13.20
2019-02-02T09:51:05.450Z,14.87
2019-02-02T09:53:38.996Z,12.55
2019-02-02T09:56:12.554Z,12.50
2019-02-02T09:58:46.162Z,13.98
2019-02-02T10:01:27.583Z,11.93
2019-02-02T10:03:53.946Z,12.77
2019-02-02T10:06:27.718Z,13.18
2019-02-02T10:09:01.429Z,14.40
2019-02-02T10:11:35.740Z,13.50
2019-02-02T10:14:09.390Z,12.52
2019-02-02T10:16:43.044Z,13.85
2019-02-02T10:19:16.878Z,12.88
2019-02-02T10:21:50.615Z,13.62
2019-02-02T10:24:25.063Z,13.70
2019-02-02T10:26:58.826Z,12.73
2019-02-02T10:29:32.558Z,13.13
2019-02-02T10:32:06.237Z,14.25
2019-02-02T10:34:40.740Z,23.23
2019-02-02T10:37:14.374Z,13.90
2019-02-02T10:39:48.907Z,11.30
2019-02-02T10:42:22.847Z,11.40
2019-02-02T10:44:56.603Z,11.55
2019-02-02T10:47:30.486Z,10.13
2019-02-02T10:50:04.151Z,10.80
2019-02-02T10:52:37.993Z,10.07
2019-02-02T10:55:11.648Z,11.07
2019-02-02T10:57:45.190Z,10.68
2019-02-02T11:00:23.490Z,10.73
2019-02-02T11:02:57.087Z,11.07
2019-02-02T11:05:30.935Z,11.60
2019-02-02T11:08:05.040Z,11.77
2019-02-02T11:10:38.899Z,10.88
2019-02-02T11:13:12.374Z,11.10
2019-02-02T11:15:46.390Z,9.32
2019-02-02T11:18:19.798Z,8.60
2019-02-02T11:20:53.526Z,9.52
2019-02-02T11:23:27.196Z,10.10
2019-02-02T11:26:01.086Z,12.07
2019-02-02T11:28:34.635Z,10.13
2019-02-02T11:31:08.354Z,9.52
2019-02-02T11:33:44.320Z,8.52
2019-02-02T11:36:15.771Z,7.85
2019-02-02T11:38:49.308Z,9.05
2019-02-02T11:41:23.009Z,11.30
2019-02-02T11:43:56.727Z,10.88
2019-02-02T11:46:30.373Z,10.98
2019-02-02T11:49:03.974Z,9.80
2019-02-02T11:51:37.760Z,9.70
2019-02-02T11:54:11.327Z,9.10
2019-02-02T11:56:45.826Z,10.68
2019-02-02T11:59:20.208Z,9.65
2019-02-02T12:01:53.918Z,10.50
2019-02-02T12:04:27.471Z,10.75
2019-02-02T12:07:01.175Z,9.65
2019-02-02T12:09:34.787Z,8.75
2019-02-02T12:12:08.539Z,8.52
2019-02-02T12:14:42.100Z,6.50
2019-02-02T12:17:15.724Z,6.82
2019-02-02T12:19:49.274Z,7.30
2019-02-02T12:22:22.920Z,7.20
2019-02-02T12:24:56.476Z,6.30
2019-02-02T12:27:30.246Z,6.55
2019-02-02T12:30:06.740Z,6.78
2019-02-02T12:32:40.479Z,7.68
2019-02-02T12:35:14.972Z,9.05
2019-02-02T12:37:48.768Z,9.27
2019-02-02T12:40:22.334Z,9.00
2019-02-02T12:42:56.032Z,8.15
2019-02-02T12:45:35.434Z,9.27
2019-02-02T12:48:09.244Z,17.80
2019-02-02T12:50:42.792Z,9.45
2019-02-02T12:53:16.640Z,9.80
2019-02-02T12:55:50.402Z,11.43
2019-02-02T12:58:24.174Z,11.18
2019-02-02T13:00:57.867Z,12.68
2019-02-02T13:03:31.453Z,11.38
2019-02-02T13:06:05.053Z,13.40
2019-02-02T13:08:38.732Z,13.15
2019-02-02T13:11:13.249Z,14.45
2019-02-02T13:13:46.959Z,13.55
2019-02-02T13:16:20.536Z,14.15
2019-02-02T13:18:54.209Z,11.85
2019-02-02T13:21:27.793Z,14.05
2019-02-02T13:24:02.107Z,12.82
2019-02-02T13:26:35.874Z,14.35
2019-02-02T13:29:09.614Z,13.98
2019-02-02T13:31:43.406Z,14.87
2019-02-02T13:34:17.174Z,15.65
2019-02-02T13:36:50.733Z,13.98
2019-02-02T13:39:24.549Z,13.82
2019-02-02T13:41:58.276Z,14.65
2019-02-02T13:44:31.968Z,14.02
2019-02-02T13:47:05.571Z,15.13
2019-02-02T13:49:39.144Z,13.95
2019-02-02T13:52:12.954Z,13.10
2019-02-02T13:54:46.560Z,13.13
2019-02-02T13:57:20.224Z,13.70
2019-02-02T13:59:54.058Z,12.50
2019-02-02T14:02:27.870Z,14.43
2019-02-02T14:05:01.528Z,13.20
2019-02-02T14:07:35.292Z,14.07
2019-02-02T14:10:09.075Z,13.45
2019-02-02T14:12:42.830Z,13.88
2019-02-02T14:15:16.635Z,13.25
2019-02-02T14:17:50.309Z,14.87
2019-02-02T14:20:23.998Z,12.23
2019-02-02T14:22:58.350Z,13.10
2019-02-02T14:25:34.104Z,12.85
2019-02-02T14:28:08.032Z,10.75
2019-02-02T14:30:41.771Z,11.40
2019-02-02T14:33:16.129Z,10.45
2019-02-02T14:35:49.795Z,9.65
2019-02-02T14:38:23.535Z,10.65
2019-02-02T14:40:57.410Z,10.10
2019-02-02T14:43:31.276Z,10.05
2019-02-02T14:46:05.026Z,9.38
2019-02-02T14:48:38.947Z,11.10
2019-02-02T14:51:12.647Z,9.68
2019-02-02T14:53:46.318Z,10.43
2019-02-02T14:56:19.998Z,7.80
2019-02-02T14:58:54.483Z,7.95
2019-02-02T15:01:28.228Z,8.60
2019-02-02T15:04:01.892Z,8.43
2019-02-02T15:06:36.566Z,9.73
2019-02-02T15:09:10.277Z,9.95
2019-02-02T15:11:44.649Z,9.35
2019-02-02T15:14:18.988Z,9.70
2019-02-02T15:16:52.770Z,9.90
2019-02-02T15:19:26.577Z,12.55
2019-02-02T15:22:01.088Z,9.38
2019-02-02T15:24:34.851Z,9.32
2019-02-02T15:27:08.532Z,11.05
2019-02-02T15:29:42.358Z,10.60
2019-02-02T15:32:16.064Z,10.80
2019-02-02T15:34:49.839Z,9.95
2019-02-02T15:37:23.501Z,9.02
2019-02-02T15:39:57.483Z,9.40
2019-02-02T15:42:31.219Z,10.75
2019-02-02T15:45:05.577Z,8.70
2019-02-02T15:47:39.097Z,9.30
2019-02-02T15:50:13.562Z,9.50
2019-02-02T15:52:48.126Z,8.82
2019-02-02T15:55:23.279Z,8.80
2019-02-02T15:57:56.924Z,8.70
2019-02-02T16:00:31.480Z,9.80
2019-02-02T16:03:05.867Z,8.35
2019-02-02T16:05:40.217Z,9.68
2019-02-02T16:08:14.619Z,9.65
2019-02-02T16:10:48.375Z,8.95
2019-02-02T16:13:22.869Z,8.93
2019-02-02T16:15:56.484Z,8.48
2019-02-02T16:18:30.271Z,9.88
2019-02-02T16:21:04.691Z,9.40
2019-02-02T16:23:38.296Z,9.63
2019-02-02T16:26:12.023Z,10.05
2019-02-02T16:28:45.828Z,10.00
2019-02-02T16:31:19.630Z,8.63
2019-02-02T16:34:01.733Z,8.65
2019-02-02T16:36:26.823Z,8.82
2019-02-02T16:39:01.327Z,9.77
2019-02-02T16:41:34.979Z,8.75
2019-02-02T16:44:08.551Z,10.27
2019-02-02T16:46:42.243Z,10.43
2019-02-02T16:49:15.997Z,10.25
2019-02-02T16:51:49.713Z,11.10
2019-02-02T16:54:23.618Z,9.77
2019-02-02T16:56:57.173Z,10.50
2019-02-02T16:59:30.872Z,10.57
2019-02-02T17:02:04.432Z,11.25
2019-02-02T17:04:38.074Z,9.95
2019-02-02T17:07:12.570Z,10.55
2019-02-02T17:09:46.275Z,10.48
2019-02-02T17:12:19.957Z,10.38
2019-02-02T17:14:55.714Z,9.90
2019-02-02T17:17:27.288Z,10.55
2019-02-02T17:20:00.938Z,10.65
2019-02-02T17:22:35.344Z,10.57
2019-02-02T17:25:10.516Z,10.85
2019-02-02T17:27:44.095Z,12.00
2019-02-02T17:30:20.547Z,12.35
2019-02-02T17:32:54.200Z,11.38
2019-02-02T17:35:27.741Z,11.68
2019-02-02T17:38:01.497Z,11.20
2019-02-02T17:40:35.161Z,12.23
2019-02-02T17:43:08.839Z,10.95
2019-02-02T17:45:43.154Z,12.80
2019-02-02T17:48:16.688Z,12.85
2019-02-02T17:50:50.355Z,13.00
2019-02-02T17:53:23.897Z,12.20
2019-02-02T17:55:57.547Z,10.63
2019-02-02T17:58:39.308Z,11.55
2019-02-02T18:01:05.839Z,12.27
2019-02-02T18:03:39.664Z,11.63
2019-02-02T18:06:13.424Z,13.68
2019-02-02T18:08:47.891Z,12.77
2019-02-02T18:11:22.255Z,12.57
2019-02-02T18:13:55.951Z,13.27
2019-02-02T18:16:29.647Z,12.00
2019-02-02T18:19:03.201Z,13.13
2019-02-02T18:21:36.938Z,11.98
2019-02-02T18:24:10.668Z,12.35
2019-02-02T18:26:45.258Z,13.43
2019-02-02T18:29:19.020Z,14.63
2019-02-02T18:31:52.625Z,13.45
2019-02-02T18:34:26.413Z,13.20
2019-02-02T18:36:59.917Z,11.93
2019-02-02T18:39:33.604Z,12.23
2019-02-02T18:42:07.903Z,11.70
2019-02-02T18:44:42.336Z,13.45
2019-02-02T18:47:15.911Z,13.40
2019-02-02T18:49:49.659Z,14.50
2019-02-02T18:52:23.461Z,12.52
2019-02-02T18:54:57.015Z,14.38
2019-02-02T18:57:30.783Z,13.90
2019-02-02T19:00:06.252Z,15.13
2019-02-02T19:02:38.702Z,14.25
2019-02-02T19:05:12.537Z,13.90
2019-02-02T19:07:46.161Z,14.87
2019-02-02T19:10:19.843Z,13.93
2019-02-02T19:12:53.363Z,15.13
2019-02-02T19:15:27.812Z,15.82
2019-02-02T19:18:03.406Z,14.25
2019-02-02T19:20:35.304Z,13.93
2019-02-02T19:23:09.808Z,14.32
2019-02-02T19:25:43.963Z,15.65
2019-02-02T19:28:17.695Z,13.73
2019-02-02T19:30:53.535Z,15.43
2019-02-02T19:33:24.761Z,14.20
2019-02-02T19:35:58.386Z,15.55
2019-02-02T19:38:32.142Z,13.32
2019-02-02T19:41:06.484Z,14.73
2019-02-02T19:43:40.066Z,12.93
2019-02-02T19:46:13.835Z,14.50
2019-02-02T19:48:47.443Z,14.32
2019-02-02T19:51:21.230Z,14.30
2019-02-02T19:53:55.000Z,15.70
2019-02-02T19:56:28.627Z,15.90
2019-02-02T19:59:02.278Z,13.98
2019-02-02T20:01:35.880Z,14.75
2019-02-02T20:04:09.484Z,13.65
2019-02-02T20:06:43.196Z,13.75
2019-02-02T20:09:16.966Z,15.60
2019-02-02T20:11:50.497Z,15.70
2019-02-02T20:14:24.067Z,15.60
2019-02-02T20:16:58.412Z,19.20
2019-02-02T20:19:32.095Z,15.95
2019-02-02T20:22:05.855Z,15.90
2019-02-02T20:24:39.558Z,15.18
2019-02-02T20:27:13.854Z,15.10
2019-02-02T20:29:47.438Z,15.40
2019-02-02T20:32:21.044Z,17.05
2019-02-02T20:34:55.547Z,15.20
2019-02-02T20:37:29.252Z,18.37
2019-02-02T20:40:02.995Z,17.58
2019-02-02T20:42:36.724Z,16.33
2019-02-02T20:45:14.177Z,17.27
2019-02-02T20:47:47.853Z,16.62
2019-02-02T20:50:21.425Z,18.17
2019-02-02T20:52:55.078Z,16.30
2019-02-02T20:55:31.500Z,16.62
2019-02-02T20:58:05.160Z,15.93
2019-02-02T21:00:38.719Z,16.00
2019-02-02T21:03:12.350Z,17.65
2019-02-02T21:05:52.387Z,17.60
2019-02-02T21:08:19.374Z,17.33
2019-02-02T21:10:53.111Z,16.75
2019-02-02T21:13:26.763Z,16.37
2019-02-02T21:16:00.486Z,16.20
2019-02-02T21:18:34.169Z,16.75
2019-02-02T21:21:07.685Z,17.75
2019-02-02T21:23:41.390Z,17.27
2019-02-02T21:26:15.514Z,15.85
2019-02-02T21:28:50.681Z,16.08
2019-02-02T21:31:22.925Z,14.90
2019-02-02T21:33:56.731Z,14.73
2019-02-02T21:36:30.439Z,17.00
2019-02-02T21:39:04.031Z,14.43
2019-02-02T21:41:37.732Z,16.77
2019-02-02T21:44:11.312Z,14.40
2019-02-02T21:46:44.897Z,14.75
2019-02-02T21:49:19.242Z,15.50
2019-02-02T21:51:53.623Z,15.80
2019-02-02T21:54:27.971Z,17.33
2019-02-02T21:57:01.737Z,17.00
2019-02-02T21:59:35.298Z,14.73
2019-02-02T22:02:08.939Z,14.95
2019-02-02T22:04:42.571Z,15.27
2019-02-02T22:07:16.111Z,15.50
2019-02-02T22:09:49.765Z,15.35
2019-02-02T22:12:23.515Z,16.45
2019-02-02T22:14:57.065Z,15.10
2019-02-02T22:17:31.061Z,15.77
2019-02-02T22:20:04.627Z,15.27
2019-02-02T22:22:38.453Z,15.15
2019-02-02T22:25:15.691Z,16.85
2019-02-02T22:27:49.288Z,16.77
2019-02-02T22:30:23.972Z,17.67
2019-02-02T22:32:58.323Z,21.65
2019-02-02T22:35:32.755Z,17.73
2019-02-02T22:38:06.370Z,18.77
2019-02-02T22:40:40.102Z,16.73
2019-02-02T22:43:13.831Z,17.10
2019-02-02T22:45:47.278Z,17.70
2019-02-02T22:48:20.887Z,16.60
2019-02-02T22:50:55.504Z,16.12
2019-02-02T22:53:29.184Z,16.45
2019-02-02T22:56:02.906Z,18.90
2019-02-02T22:58:36.699Z,15.75
2019-02-02T23:01:11.217Z,16.37
2019-02-02T23:03:53.226Z,17.37
2019-02-02T23:06:38.903Z,17.33
2019-02-02T23:09:10.534Z,15.20
2019-02-02T23:12:06.037Z,16.50
2019-02-02T23:14:46.203Z,15.88
2019-02-02T23:17:19.853Z,17.52
2019-02-02T23:19:54.045Z,17.75
2019-02-02T23:22:28.604Z,20.08
2019-02-02T23:25:02.268Z,18.40
2019-02-02T23:27:35.789Z,17.45
2019-02-02T23:30:13.085Z,16.98
2019-02-02T23:32:47.503Z,17.98
2019-02-02T23:35:21.183Z,16.20
2019-02-02T23:37:54.900Z,18.35
2019-02-02T23:40:28.481Z,18.50
2019-02-02T23:43:02.168Z,17.95
2019-02-02T23:45:35.991Z,17.90
2019-02-02T23:48:09.701Z,20.40
2019-02-02T23:50:43.323Z,16.80
2019-02-02T23:53:17.018Z,18.15
2019-02-02T23:55:50.598Z,17.00
2019-02-02T23:58:24.174Z,19.75
